Time;durP1;ratioP1;P1;durP2;ratioP2;P2;SDS_P1;SDS_P2;PMS_P1;PMS_P2;Temp;Humidity;BMP_temperature;BMP_pressure;BME280_temperature;BME280_humidity;BME280_pressure;Samples;Min_cycle;Max_cycle;Signal;HPM_P1;HPM_P2
2022/10/05 00:00:20;;;;;;;4.38;3.00;;;11.00;99.90;;;;;;5001934;28;20038;-75
2022/10/05 00:02:53;;;;;;;4.80;3.15;;;11.00;99.90;;;;;;5001071;28;20502;-75
2022/10/05 00:05:25;;;;;;;6.93;3.15;;;11.00;99.90;;;;;;5005291;28;20038;-75
2022/10/05 00:08:22;;;;;;;6.30;3.15;;;10.90;99.90;;;;;;5004529;28;20369;-75
2022/10/05 00:10:51;;;;;;;7.13;3.60;;;10.90;99.90;;;;;;4997071;28;20483;-76
2022/10/05 00:13:29;;;;;;;7.45;3.00;;;10.90;99.90;;;;;;5014931;28;20113;-75
2022/10/05 00:16:04;;;;;;;6.43;3.10;;;10.90;99.90;;;;;;5005736;28;20026;-75
2022/10/05 00:18:31;;;;;;;3.85;3.00;;;10.80;99.90;;;;;;5003186;28;20125;-75
2022/10/05 00:21:00;;;;;;;7.28;3.90;;;10.80;99.90;;;;;;5011772;28;20399;-78
2022/10/05 00:23:30;;;;;;;4.45;2.90;;;10.80;99.90;;;;;;5010185;28;20483;-78
2022/10/05 00:26:15;;;;;;;5.20;2.92;;;10.70;99.90;;;;;;5012056;28;20479;-78
2022/10/05 00:28:46;;;;;;;;;;;10.70;99.90;;;;;;5003598;28;20056;-76
2022/10/05 00:31:22;;;;;;;4.38;3.10;;;10.70;99.90;;;;;;5002950;28;19976;-76
2022/10/05 00:33:51;;;;;;;4.40;3.60;;;10.70;99.90;;;;;;5001523;28;20508;-77
2022/10/05 00:36:20;;;;;;;5.55;3.42;;;10.70;99.90;;;;;;5020633;28;20044;-76
2022/10/05 00:38:46;;;;;;;7.15;3.00;;;10.70;99.90;;;;;;4996545;28;20076;-76
2022/10/05 00:41:48;;;;;;;6.97;3.67;;;10.60;99.90;;;;;;5002545;28;20030;-76
2022/10/05 00:44:51;;;;;;;8.00;3.90;;;10.60;99.90;;;;;;4997724;28;20049;-76
2022/10/05 00:47:31;;;;;;;7.82;4.07;;;10.60;99.90;;;;;;5000409;28;20035;-76
2022/10/05 00:50:45;;;;;;;6.70;4.20;;;10.60;99.90;;;;;;4999017;28;20553;-76
2022/10/05 00:53:38;;;;;;;7.38;3.88;;;10.50;99.90;;;;;;4972371;28;20501;-76
2022/10/05 00:56:28;;;;;;;9.98;5.00;;;10.40;99.90;;;;;;4997236;28;20018;-76
2022/10/05 00:59:21;;;;;;;6.80;3.97;;;10.40;99.90;;;;;;5013354;28;20045;-77
2022/10/05 01:02:10;;;;;;;6.97;4.13;;;10.30;99.90;;;;;;5044390;23;20498;-71
2022/10/05 01:04:58;;;;;;;6.57;4.18;;;10.20;99.90;;;;;;5010719;28;20040;-72
2022/10/05 01:07:29;;;;;;;8.07;4.45;;;10.20;99.90;;;;;;5026869;28;20034;-73
2022/10/05 01:10:32;;;;;;;7.20;3.90;;;10.20;99.90;;;;;;5026807;28;20068;-72
2022/10/05 01:13:03;;;;;;;6.05;3.75;;;10.10;99.90;;;;;;5027063;28;20029;-72
2022/10/05 01:18:37;;;;;;;9.07;4.40;;;10.00;99.90;;;;;;5012120;28;20061;-71
2022/10/05 01:21:20;;;;;;;7.72;4.93;;;10.00;99.90;;;;;;5026831;28;20033;-70
2022/10/05 01:23:52;;;;;;;9.15;4.88;;;10.00;99.90;;;;;;5026103;28;20029;-72
2022/10/05 01:26:46;;;;;;;8.13;4.95;;;9.90;99.90;;;;;;5004366;28;20030;-72
2022/10/05 01:29:30;;;;;;;8.32;6.03;;;9.80;99.90;;;;;;5010471;28;20513;-73
2022/10/05 01:32:04;;;;;;;8.60;6.18;;;9.80;99.90;;;;;;4990617;28;20038;-73
2022/10/05 01:34:41;;;;;;;8.70;5.90;;;9.80;99.90;;;;;;5000755;28;20049;-74
2022/10/05 01:37:38;;;;;;;10.02;5.47;;;9.70;99.90;;;;;;5015135;28;20395;-73
2022/10/05 01:40:23;;;;;;;14.70;6.45;;;9.70;99.90;;;;;;5001159;28;20041;-73
2022/10/05 01:43:06;;;;;;;7.45;5.68;;;9.70;99.90;;;;;;5004366;28;20018;-72
2022/10/05 01:45:57;;;;;;;10.50;6.38;;;9.60;99.90;;;;;;5003359;28;20033;-74
2022/10/05 01:49:00;;;;;;;9.88;5.35;;;9.60;99.90;;;;;;5010629;28;20032;-73
2022/10/05 01:51:56;;;;;;;8.32;5.03;;;9.50;99.90;;;;;;5012105;28;20038;-73
2022/10/05 01:55:18;;;;;;;10.75;5.63;;;9.50;99.90;;;;;;5001500;28;20448;-74
2022/10/05 01:58:35;;;;;;;12.05;5.60;;;9.40;99.90;;;;;;4985225;28;20026;-73
2022/10/05 02:01:15;;;;;;;9.40;4.93;;;9.40;99.90;;;;;;4921266;29;20418;-73
2022/10/05 02:04:03;;;;;;;5.68;3.90;;;9.30;99.90;;;;;;4990204;28;20117;-73
2022/10/05 02:06:39;;;;;;;8.93;5.05;;;9.30;99.90;;;;;;5012062;28;20049;-71
2022/10/05 02:09:12;;;;;;;6.25;4.07;;;9.30;99.90;;;;;;5014617;28;20030;-73
2022/10/05 02:11:39;;;;;;;8.40;4.57;;;9.30;99.90;;;;;;5027031;28;20116;-73
2022/10/05 02:14:45;;;;;;;5.55;3.85;;;9.30;99.90;;;;;;5009498;28;20355;-73
2022/10/05 02:17:23;;;;;;;6.95;4.65;;;9.20;99.90;;;;;;5007277;28;20108;-73
2022/10/05 02:20:00;;;;;;;6.88;4.55;;;9.20;99.90;;;;;;5014512;28;20033;-71
2022/10/05 02:22:34;;;;;;;7.90;4.80;;;9.20;99.90;;;;;;5005265;28;20049;-71
2022/10/05 02:25:08;;;;;;;7.40;4.22;;;9.20;99.90;;;;;;5026360;28;20026;-70
2022/10/05 02:27:45;;;;;;;13.63;4.70;;;9.20;99.90;;;;;;5014583;28;20052;-73
2022/10/05 02:30:12;;;;;;;10.57;4.80;;;9.20;99.90;;;;;;5021903;28;20044;-73
2022/10/05 02:32:48;;;;;;;8.82;4.10;;;9.20;99.90;;;;;;5012438;28;20034;-74
2022/10/05 02:35:17;;;;;;;4.05;3.17;;;9.20;99.90;;;;;;5003246;28;20126;-74
2022/10/05 02:38:26;;;;;;;5.97;3.50;;;9.20;99.90;;;;;;5004680;28;20666;-73
2022/10/05 02:40:55;;;;;;;5.93;3.92;;;9.10;99.90;;;;;;5029286;28;20486;-73
2022/10/05 02:44:08;;;;;;;6.25;3.47;;;9.10;99.90;;;;;;5014044;28;20379;-73
2022/10/05 02:47:03;;;;;;;4.50;2.95;;;9.10;99.90;;;;;;4996875;28;20040;-74
2022/10/05 02:49:46;;;;;;;7.60;3.42;;;9.10;99.90;;;;;;5011281;28;20041;-73
2022/10/05 02:52:18;;;;;;;4.13;2.95;;;9.10;99.90;;;;;;5003436;28;20010;-72
2022/10/05 02:55:09;;;;;;;8.32;3.72;;;9.00;99.90;;;;;;5010521;28;20062;-72
2022/10/05 02:58:07;;;;;;;5.60;3.03;;;9.00;99.90;;;;;;5012937;28;20121;-72
2022/10/05 03:00:45;;;;;;;6.25;2.92;;;9.00;99.90;;;;;;4989508;28;20053;-72
2022/10/05 03:03:26;;;;;;;5.78;3.65;;;8.90;99.90;;;;;;5013545;28;20387;-73
2022/10/05 03:06:30;;;;;;;7.28;3.72;;;8.90;99.90;;;;;;5013565;28;20490;-72
2022/10/05 03:09:08;;;;;;;7.03;3.83;;;8.90;99.90;;;;;;4986636;28;20521;-72
2022/10/05 03:11:50;;;;;;;7.63;4.05;;;8.80;99.90;;;;;;4999387;28;20041;-73
2022/10/05 03:14:53;;;;;;;6.10;3.92;;;8.80;99.90;;;;;;4993996;28;20023;-72
2022/10/05 03:17:26;;;;;;;5.70;3.88;;;8.80;99.90;;;;;;5008807;28;20021;-72
2022/10/05 03:20:13;;;;;;;4.43;3.40;;;8.80;99.90;;;;;;5013294;28;20033;-72
2022/10/05 03:23:00;;;;;;;8.55;3.80;;;8.80;99.90;;;;;;5002547;28;20117;-72
2022/10/05 03:25:47;;;;;;;7.75;4.35;;;8.80;99.90;;;;;;5011041;28;20116;-72
2022/10/05 03:28:19;;;;;;;8.05;3.42;;;8.80;99.90;;;;;;5012092;28;20390;-73
2022/10/05 03:31:15;;;;;;;4.90;3.42;;;8.70;99.90;;;;;;5008246;28;20072;-73
2022/10/05 03:33:49;;;;;;;7.95;3.97;;;8.70;99.90;;;;;;5013077;28;20028;-73
2022/10/05 03:36:36;;;;;;;5.63;3.13;;;8.70;99.90;;;;;;5012979;28;20022;-73
2022/10/05 03:39:13;;;;;;;5.50;3.13;;;8.70;99.90;;;;;;4993607;28;20497;-72
2022/10/05 03:42:04;;;;;;;6.10;3.20;;;8.70;99.90;;;;;;4993309;28;20101;-74
2022/10/05 03:44:46;;;;;;;5.03;3.03;;;8.60;99.90;;;;;;4993458;28;20019;-74
2022/10/05 03:47:38;;;;;;;7.43;3.38;;;8.60;99.90;;;;;;5002884;28;20634;-73
2022/10/05 03:50:41;;;;;;;7.40;3.55;;;8.60;99.90;;;;;;4998912;28;20080;-73
2022/10/05 03:53:24;;;;;;;7.82;3.08;;;8.50;99.90;;;;;;5001637;28;20029;-72
2022/10/05 03:55:58;;;;;;;9.35;3.30;;;8.50;99.90;;;;;;4993592;28;20044;-73
2022/10/05 03:59:04;;;;;;;6.78;3.67;;;8.40;99.90;;;;;;5000837;28;20052;-73
2022/10/05 04:01:48;;;;;;;5.40;3.92;;;8.40;99.90;;;;;;5010874;28;20042;-73
2022/10/05 04:04:35;;;;;;;6.78;4.15;;;8.40;99.90;;;;;;5001052;28;20029;-72
2022/10/05 04:07:02;;;;;;;4.85;3.55;;;8.40;99.90;;;;;;5007715;28;20036;-73
2022/10/05 04:09:43;;;;;;;6.22;4.25;;;8.40;99.90;;;;;;5026744;28;20037;-73
2022/10/05 04:12:22;;;;;;;8.68;4.47;;;8.40;99.90;;;;;;5012926;28;20026;-73
2022/10/05 04:14:56;;;;;;;9.32;3.95;;;8.40;99.90;;;;;;5007231;28;20026;-74
2022/10/05 04:17:55;;;;;;;7.25;3.85;;;8.40;99.90;;;;;;5003393;28;20497;-73
2022/10/05 04:20:23;;;;;;;8.43;4.22;;;8.40;99.90;;;;;;5005777;28;20398;-73
2022/10/05 04:22:58;;;;;;;7.35;4.90;;;8.50;99.90;;;;;;5005355;28;20024;-74
2022/10/05 04:25:50;;;;;;;8.38;4.35;;;8.40;99.90;;;;;;5003517;28;20026;-74
2022/10/05 04:28:37;;;;;;;7.43;4.18;;;8.40;99.90;;;;;;4999461;28;20049;-74
2022/10/05 04:31:05;;;;;;;6.10;3.60;;;8.40;99.90;;;;;;5004878;28;20045;-74
2022/10/05 04:33:33;;;;;;;10.57;3.92;;;8.40;99.90;;;;;;5007277;28;20057;-74
2022/10/05 04:36:23;;;;;;;6.13;3.72;;;8.50;99.90;;;;;;5025315;28;20041;-74
2022/10/05 04:39:07;;;;;;;10.40;4.63;;;8.50;99.90;;;;;;5006759;28;20475;-74
2022/10/05 04:41:50;;;;;;;;;;;8.50;99.90;;;;;;5012317;28;20566;-73
2022/10/05 04:44:43;;;;;;;13.00;8.30;;;8.50;99.90;;;;;;5012078;28;19990;-73
2022/10/05 04:47:41;;;;;;;8.82;5.60;;;8.50;99.90;;;;;;5014255;28;20394;-73
2022/10/05 04:50:25;;;;;;;8.93;4.68;;;8.50;99.90;;;;;;5006492;28;20451;-73
2022/10/05 04:53:27;;;;;;;9.13;4.95;;;8.60;99.90;;;;;;4992668;28;20034;-73
2022/10/05 04:56:08;;;;;;;7.10;4.32;;;8.50;99.90;;;;;;4996066;28;20029;-74
2022/10/05 04:59:04;;;;;;;11.40;4.35;;;8.60;99.90;;;;;;5007320;28;20032;-74
2022/10/05 05:01:29;;;;;;;8.30;4.60;;;8.50;99.90;;;;;;5011728;28;20100;-73
2022/10/05 05:04:10;;;;;;;7.45;3.83;;;8.50;99.90;;;;;;5010701;28;20109;-73
2022/10/05 05:07:13;;;;;;;6.45;4.15;;;8.50;99.90;;;;;;5010867;28;20053;-73
2022/10/05 05:09:55;;;;;;;8.48;3.88;;;8.50;99.90;;;;;;5002899;28;20483;-71
2022/10/05 05:13:08;;;;;;;6.30;3.83;;;8.50;99.90;;;;;;4992789;28;20369;-71
2022/10/05 05:15:33;;;;;;;5.45;3.67;;;8.50;99.90;;;;;;5005624;28;20097;-73
2022/10/05 05:18:30;;;;;;;6.57;4.00;;;8.40;99.90;;;;;;5008601;28;20030;-70
2022/10/05 05:21:17;;;;;;;7.32;4.30;;;8.40;99.90;;;;;;5002233;28;20022;-69
2022/10/05 05:24:08;;;;;;;7.68;4.72;;;8.40;99.90;;;;;;5004446;28;20042;-70
2022/10/05 05:27:07;;;;;;;11.80;5.55;;;8.40;99.90;;;;;;5005909;28;20034;-69
2022/10/05 05:30:10;;;;;;;11.30;6.40;;;8.40;99.90;;;;;;5005512;28;20129;-69
2022/10/05 05:33:05;;;;;;;20.13;12.80;;;8.40;99.90;;;;;;5003777;28;20084;-70
2022/10/05 05:36:04;;;;;;;15.75;10.02;;;8.40;99.90;;;;;;5004585;28;20040;-69
2022/10/05 05:38:58;;;;;;;11.65;5.60;;;8.40;99.90;;;;;;5015412;28;20022;-73
2022/10/05 05:41:35;;;;;;;7.97;3.78;;;8.40;99.90;;;;;;5014155;28;20026;-74
2022/10/05 05:44:25;;;;;;;5.72;3.83;;;8.40;99.90;;;;;;5008884;28;20038;-73
2022/10/05 05:47:27;;;;;;;9.70;3.63;;;8.30;99.90;;;;;;4998163;28;20030;-72
2022/10/05 05:50:01;;;;;;;8.07;4.10;;;8.30;99.90;;;;;;5015387;28;20072;-72
2022/10/05 05:52:33;;;;;;;6.55;3.30;;;8.30;99.90;;;;;;5014026;28;20037;-71
2022/10/05 05:55:21;;;;;;;7.47;3.88;;;8.30;99.90;;;;;;5001481;28;20035;-72
2022/10/05 05:57:59;;;;;;;7.30;3.83;;;8.20;99.90;;;;;;4999600;28;20101;-71
2022/10/05 06:00:41;;;;;;;5.70;4.05;;;8.20;99.90;;;;;;5015415;28;20037;-71
2022/10/05 06:03:13;;;;;;;7.88;3.45;;;8.20;99.90;;;;;;5000512;28;20041;-72
2022/10/05 06:06:03;;;;;;;6.72;3.60;;;8.20;99.90;;;;;;5014885;28;20061;-73
2022/10/05 06:08:40;;;;;;;6.55;4.13;;;8.20;99.90;;;;;;4999023;28;20097;-73
2022/10/05 06:11:30;;;;;;;7.28;4.40;;;8.20;99.90;;;;;;5000495;28;20022;-74
2022/10/05 06:14:03;;;;;;;7.57;4.60;;;8.20;99.90;;;;;;4995485;28;20035;-74
2022/10/05 06:17:01;;;;;;;10.45;4.93;;;8.20;99.90;;;;;;4995725;28;20526;-74
2022/10/05 06:19:30;;;;;;;10.43;4.75;;;8.20;99.90;;;;;;4994763;28;20045;-73
2022/10/05 06:22:10;;;;;;;10.55;4.60;;;8.30;99.90;;;;;;5003195;28;20030;-73
2022/10/05 06:25:01;;;;;;;5.88;4.00;;;8.30;99.90;;;;;;5009671;28;20033;-74
2022/10/05 06:28:04;;;;;;;7.90;3.83;;;8.30;99.90;;;;;;5010013;28;20037;-74
2022/10/05 06:31:01;;;;;;;6.22;3.95;;;8.40;99.90;;;;;;5003149;28;20026;-73
2022/10/05 06:33:41;;;;;;;9.32;4.30;;;8.50;99.90;;;;;;5007069;28;20499;-74
2022/10/05 06:36:22;;;;;;;15.18;6.15;;;8.50;99.90;;;;;;5014409;28;20033;-74
2022/10/05 06:38:54;;;;;;;9.52;5.28;;;8.60;99.90;;;;;;5005031;28;20027;-73
2022/10/05 06:41:47;;;;;;;17.65;5.50;;;8.70;99.90;;;;;;5003962;28;20031;-73
2022/10/05 06:44:18;;;;;;;7.40;4.35;;;8.80;99.90;;;;;;5001148;28;20077;-72
2022/10/05 06:46:47;;;;;;;7.75;4.28;;;8.90;99.90;;;;;;5010343;28;20513;-73
2022/10/05 06:49:51;;;;;;;20.63;4.38;;;8.90;99.90;;;;;;5004959;28;20470;-73
2022/10/05 06:52:55;;;;;;;6.72;4.30;;;9.00;99.90;;;;;;5003316;28;20059;-72
2022/10/05 06:55:48;;;;;;;13.75;5.03;;;9.10;99.90;;;;;;5000626;28;20044;-73
2022/10/05 06:58:31;;;;;;;10.45;4.80;;;9.30;99.90;;;;;;5010288;28;20049;-72
2022/10/05 07:01:11;;;;;;;10.27;5.10;;;9.40;99.90;;;;;;5004161;28;20037;-77
2022/10/05 07:04:25;;;;;;;9.02;5.90;;;9.50;99.90;;;;;;5007708;28;20025;-78
2022/10/05 07:07:15;;;;;;;13.88;6.18;;;9.50;99.90;;;;;;4999899;28;20057;-77
2022/10/05 07:10:07;;;;;;;12.13;5.65;;;9.60;99.90;;;;;;5007051;28;20030;-77
2022/10/05 07:12:56;;;;;;;10.98;4.88;;;9.70;99.90;;;;;;5006175;28;20041;-77
2022/10/05 07:15:57;;;;;;;12.52;5.80;;;9.90;99.90;;;;;;5004348;28;20398;-77
2022/10/05 07:18:58;;;;;;;12.27;5.43;;;10.00;99.90;;;;;;5006479;28;20029;-78
2022/10/05 07:21:42;;;;;;;11.05;4.97;;;10.00;99.90;;;;;;5021749;28;20053;-77
2022/10/05 07:24:10;;;;;;;12.77;5.95;;;10.10;99.90;;;;;;5010571;28;20014;-78
2022/10/05 07:26:53;;;;;;;13.77;5.30;;;10.20;99.90;;;;;;5004804;28;20029;-77
2022/10/05 07:29:32;;;;;;;11.48;5.88;;;10.30;99.90;;;;;;5000580;28;20494;-76
2022/10/05 07:32:19;;;;;;;10.85;5.65;;;10.40;99.90;;;;;;5003977;28;20402;-77
2022/10/05 07:35:08;;;;;;;11.38;5.68;;;10.50;99.90;;;;;;5000191;28;20113;-76
2022/10/05 07:37:54;;;;;;;12.23;5.80;;;10.60;99.90;;;;;;4991745;28;20191;-76
2022/10/05 07:40:41;;;;;;;9.65;6.22;;;10.70;99.90;;;;;;4998156;28;20022;-77
2022/10/05 07:43:19;;;;;;;13.65;6.85;;;10.80;99.90;;;;;;5004564;28;20475;-77
2022/10/05 07:46:10;;;;;;;12.45;5.50;;;10.90;99.90;;;;;;5004714;28;20026;-76
2022/10/05 07:49:04;;;;;;;11.00;6.20;;;11.00;99.90;;;;;;5008414;28;20073;-77
2022/10/05 07:51:51;;;;;;;16.13;5.30;;;11.10;99.90;;;;;;5014569;28;20034;-77
2022/10/05 07:54:35;;;;;;;8.73;5.82;;;11.20;99.90;;;;;;5006977;28;20421;-77
2022/10/05 07:57:19;;;;;;;10.68;5.80;;;11.30;99.90;;;;;;5005089;28;20372;-77
2022/10/05 08:00:23;;;;;;;10.00;5.47;;;11.40;99.90;;;;;;5004417;28;20022;-76
2022/10/05 08:02:58;;;;;;;8.38;5.30;;;11.50;99.90;;;;;;5018751;28;20030;-77
2022/10/05 08:05:30;;;;;;;11.00;6.18;;;11.60;99.90;;;;;;5000635;28;20483;-77
2022/10/05 08:08:09;;;;;;;11.68;4.78;;;11.70;99.90;;;;;;5018137;28;20025;-76
2022/10/05 08:10:58;;;;;;;15.82;4.50;;;11.90;99.90;;;;;;4999102;28;20125;-77
2022/10/05 08:13:36;;;;;;;8.70;5.20;;;12.00;99.90;;;;;;5008023;28;20045;-77
2022/10/05 08:16:13;;;;;;;10.35;5.22;;;12.20;99.90;;;;;;5003216;28;20425;-77
2022/10/05 08:19:19;;;;;;;8.40;5.13;;;12.20;99.90;;;;;;5000442;28;20022;-77
2022/10/05 08:21:51;;;;;;;7.05;4.18;;;12.40;99.90;;;;;;5006822;28;20053;-76
2022/10/05 08:24:35;;;;;;;13.70;6.28;;;12.50;99.90;;;;;;4997310;28;20026;-77
2022/10/05 08:27:31;;;;;;;17.02;7.50;;;12.70;99.90;;;;;;5007162;28;20029;-77
2022/10/05 08:30:15;;;;;;;16.13;7.40;;;12.80;99.90;;;;;;5005451;28;20399;-76
2022/10/05 08:32:59;;;;;;;11.98;7.07;;;13.00;99.90;;;;;;5001935;28;20030;-77
2022/10/05 08:35:33;;;;;;;;;;;13.10;99.90;;;;;;5003482;28;20033;-77
2022/10/05 08:38:01;;;;;;;;;;;13.20;99.90;;;;;;5003157;28;19969;-77
2022/10/05 08:40:37;;;;;;;10.32;5.75;;;13.30;99.90;;;;;;5003479;28;19910;-75
2022/10/05 08:43:44;;;;;;;11.90;6.53;;;13.40;99.90;;;;;;5003664;28;20966;-77
2022/10/05 08:46:37;;;;;;;13.55;6.72;;;13.50;99.90;;;;;;5003265;28;20492;-76
2022/10/05 08:49:36;;;;;;;12.88;6.15;;;13.60;99.90;;;;;;4997589;28;20018;-76
2022/10/05 08:52:04;;;;;;;12.07;6.35;;;13.70;99.90;;;;;;5000570;28;20117;-76
2022/10/05 08:54:53;;;;;;;11.32;6.53;;;13.80;99.90;;;;;;5001950;28;20022;-76
2022/10/05 08:57:40;;;;;;;14.13;6.53;;;13.90;99.90;;;;;;4995329;28;20030;-74
2022/10/05 09:00:30;;;;;;;15.18;6.47;;;14.00;99.90;;;;;;5002008;28;20100;-74
2022/10/05 09:03:33;;;;;;;10.32;6.30;;;14.10;99.90;;;;;;5009710;28;20045;-73
2022/10/05 09:06:36;;;;;;;15.00;6.40;;;14.10;99.90;;;;;;5008731;28;20367;-73
2022/10/05 09:09:20;;;;;;;15.70;6.57;;;14.20;99.90;;;;;;4999229;28;20479;-76
2022/10/05 09:12:19;;;;;;;8.75;5.18;;;14.30;99.90;;;;;;4998683;28;20376;-74
2022/10/05 09:15:16;;;;;;;10.95;6.35;;;14.40;99.90;;;;;;5003841;28;20072;-75
2022/10/05 09:18:09;;;;;;;13.18;5.70;;;14.50;99.90;;;;;;5004573;28;20485;-74
2022/10/05 09:20:51;;;;;;;15.30;6.20;;;14.60;99.90;;;;;;5005413;28;20022;-74
2022/10/05 09:23:38;;;;;;;10.05;5.78;;;14.70;99.90;;;;;;5010870;28;20026;-74
2022/10/05 09:26:22;;;;;;;7.22;5.53;;;14.80;99.90;;;;;;5006253;28;20030;-75
2022/10/05 09:29:28;;;;;;;13.60;5.57;;;14.90;99.90;;;;;;5008533;28;20485;-74
2022/10/05 09:32:28;;;;;;;10.35;5.30;;;15.00;99.90;;;;;;5001411;28;20026;-75
2022/10/05 09:35:12;;;;;;;10.73;5.07;;;15.10;99.90;;;;;;5003600;28;20026;-75
2022/10/05 09:38:15;;;;;;;10.85;5.13;;;15.20;99.90;;;;;;5008059;28;20038;-76
2022/10/05 09:41:18;;;;;;;9.95;5.22;;;15.30;99.90;;;;;;5003385;28;20030;-75
2022/10/05 09:44:42;;;;;;;12.90;5.55;;;15.40;99.90;;;;;;5005896;28;20116;-75
2022/10/05 09:47:36;;;;;;;12.18;4.80;;;15.50;99.90;;;;;;5017974;28;20477;-76
2022/10/05 09:50:28;;;;;;;8.03;4.50;;;15.70;99.90;;;;;;5007450;28;20038;-75
2022/10/05 09:53:39;;;;;;;10.80;4.55;;;15.80;99.90;;;;;;5003136;28;20046;-75
2022/10/05 09:56:08;;;;;;;8.98;4.32;;;15.90;99.90;;;;;;5001904;28;20038;-75
2022/10/05 09:59:11;;;;;;;9.60;4.55;;;15.90;99.90;;;;;;5006526;28;20107;-76
2022/10/05 10:02:17;;;;;;;6.20;3.58;;;16.00;99.90;;;;;;5006084;28;20112;-76
2022/10/05 10:05:07;;;;;;;5.72;4.03;;;16.10;99.90;;;;;;5002022;28;20433;-75
2022/10/05 10:08:07;;;;;;;11.18;4.45;;;16.20;99.90;;;;;;5023187;28;20030;-75
2022/10/05 10:11:10;;;;;;;8.18;3.83;;;16.40;99.90;;;;;;5003700;28;20069;-76
2022/10/05 10:14:01;;;;;;;7.30;3.80;;;16.50;99.90;;;;;;5004572;28;20049;-75
2022/10/05 10:16:56;;;;;;;8.02;3.97;;;16.60;99.90;;;;;;5005326;28;20026;-76
2022/10/05 10:19:43;;;;;;;13.50;4.40;;;16.60;99.90;;;;;;5002921;28;20400;-76
2022/10/05 10:22:48;;;;;;;5.22;3.78;;;16.70;99.90;;;;;;5014472;28;20482;-76
2022/10/05 10:25:36;;;;;;;6.97;3.67;;;16.80;99.90;;;;;;4998831;28;20070;-76
2022/10/05 10:28:39;;;;;;;6.93;3.53;;;16.90;99.90;;;;;;5003824;28;20052;-76
2022/10/05 10:31:38;;;;;;;7.72;3.72;;;17.00;99.90;;;;;;5003560;28;20422;-75
2022/10/05 10:34:28;;;;;;;5.28;2.92;;;17.10;99.90;;;;;;5000043;28;20029;-74
2022/10/05 10:37:10;;;;;;;5.55;2.85;;;17.30;99.90;;;;;;5004664;28;20040;-74
2022/10/05 10:40:06;;;;;;;3.63;2.58;;;17.40;99.90;;;;;;5011622;28;20598;-74
2022/10/05 10:42:52;;;;;;;4.97;3.17;;;17.50;99.90;;;;;;5000296;28;20026;-74
2022/10/05 10:45:37;;;;;;;4.88;3.22;;;17.50;99.90;;;;;;5001587;28;20036;-74
2022/10/05 10:48:44;;;;;;;6.00;3.20;;;17.70;99.90;;;;;;5005302;28;20479;-76
2022/10/05 10:51:12;;;;;;;4.22;2.83;;;17.90;99.90;;;;;;5000321;28;20058;-76
2022/10/05 10:54:11;;;;;;;4.47;2.40;;;18.00;99.90;;;;;;5019530;28;20475;-77
2022/10/05 10:56:49;;;;;;;4.28;2.28;;;18.10;99.90;;;;;;5004877;28;20033;-77
2022/10/05 10:59:40;;;;;;;3.40;2.10;;;18.20;99.90;;;;;;5018583;28;20030;-77
2022/10/05 11:02:45;;;;;;;6.22;2.45;;;18.20;99.90;;;;;;5002658;28;20597;-77
2022/10/05 11:05:39;;;;;;;7.15;2.03;;;18.30;99.90;;;;;;5002246;28;20086;-75
2022/10/05 11:08:26;;;;;;;4.43;2.00;;;18.40;99.90;;;;;;5016340;28;20033;-75
2022/10/05 11:11:10;;;;;;;4.07;1.98;;;18.40;99.90;;;;;;5007169;28;20505;-76
2022/10/05 11:13:54;;;;;;;3.22;1.95;;;18.40;99.90;;;;;;5007602;28;20026;-76
2022/10/05 11:16:32;;;;;;;2.53;2.00;;;18.50;99.90;;;;;;5004584;28;20037;-76
2022/10/05 11:19:22;;;;;;;5.35;2.35;;;18.60;99.90;;;;;;5005986;28;20117;-75
2022/10/05 11:22:28;;;;;;;3.05;2.10;;;18.60;99.90;;;;;;5000480;28;20030;-75
2022/10/05 11:25:28;;;;;;;4.68;2.15;;;18.70;99.90;;;;;;5002983;28;20444;-75
2022/10/05 11:28:36;;;;;;;3.40;2.00;;;18.70;99.90;;;;;;5004639;28;20026;-75
2022/10/05 11:31:37;;;;;;;4.97;2.13;;;18.80;99.90;;;;;;5003949;28;20116;-73
2022/10/05 11:34:41;;;;;;;4.03;2.08;;;18.80;99.90;;;;;;4959751;28;20038;-75
2022/10/05 11:37:25;;;;;;;2.90;1.58;;;18.80;99.90;;;;;;5022244;28;20129;-76
2022/10/05 11:40:09;;;;;;;;;;;19.00;99.90;;;;;;5006280;28;20519;-75
2022/10/05 11:42:59;;;;;;;2.63;1.30;;;19.10;99.90;;;;;;5001146;28;20274;-75
2022/10/05 11:45:49;;;;;;;3.63;1.73;;;19.20;99.90;;;;;;5002130;28;20509;-75
2022/10/05 11:48:52;;;;;;;1.98;1.35;;;19.50;99.90;;;;;;5006485;28;20140;-75
2022/10/05 11:51:55;;;;;;;2.53;1.33;;;19.50;99.90;;;;;;5001270;28;20049;-75
2022/10/05 11:54:42;;;;;;;2.85;1.35;;;19.70;99.90;;;;;;5005984;28;20037;-77
2022/10/05 11:57:37;;;;;;;2.45;1.38;;;19.80;99.90;;;;;;5001532;28;20029;-76
2022/10/05 12:00:14;;;;;;;2.67;1.45;;;20.00;99.90;;;;;;5003338;28;20032;-76
2022/10/05 12:02:52;;;;;;;6.97;1.20;;;20.10;99.90;;;;;;5008347;28;20018;-77
2022/10/05 12:05:42;;;;;;;1.63;1.02;;;20.20;99.90;;;;;;4997587;28;20026;-74
2022/10/05 12:08:51;;;;;;;2.65;0.98;;;20.40;99.90;;;;;;5002246;28;20030;-76
2022/10/05 12:11:55;;;;;;;1.75;1.20;;;20.40;99.90;;;;;;5000687;28;20039;-74
2022/10/05 12:14:23;;;;;;;;;;;20.50;99.90;;;;;;5004601;28;20430;-76
2022/10/05 12:17:13;;;;;;;2.13;1.00;;;20.70;99.90;;;;;;5004566;28;20381;-75
2022/10/05 12:19:47;;;;;;;2.22;1.00;;;20.70;99.90;;;;;;5004886;28;20030;-75
2022/10/05 12:22:18;;;;;;;1.73;1.17;;;20.80;99.90;;;;;;5005780;28;20081;-78
2022/10/05 12:24:46;;;;;;;1.92;0.85;;;20.90;99.50;;;;;;5000763;28;20022;-77
2022/10/05 12:27:24;;;;;;;2.00;1.08;;;21.00;98.70;;;;;;5003173;28;20034;-76
2022/10/05 12:30:08;;;;;;;1.95;0.95;;;21.10;98.40;;;;;;5001646;28;20038;-74
2022/10/05 12:33:01;;;;;;;4.75;0.77;;;21.10;98.10;;;;;;5004344;28;20053;-74
2022/10/05 12:35:31;;;;;;;1.13;0.80;;;21.20;97.20;;;;;;4999115;28;20038;-74
2022/10/05 12:38:21;;;;;;;1.73;1.15;;;21.20;96.50;;;;;;5003338;28;20033;-74
2022/10/05 12:41:11;;;;;;;2.28;1.50;;;21.20;96.40;;;;;;5003173;28;20018;-74
2022/10/05 12:43:46;;;;;;;1.75;0.95;;;21.30;96.00;;;;;;5004502;28;20529;-74
2022/10/05 12:46:30;;;;;;;1.20;0.80;;;21.30;95.70;;;;;;5002178;28;20052;-74
2022/10/05 12:49:14;;;;;;;2.45;1.00;;;21.30;95.60;;;;;;5005250;28;20159;-74
2022/10/05 12:52:02;;;;;;;3.38;1.20;;;21.20;95.50;;;;;;5004869;28;20124;-74
2022/10/05 12:54:50;;;;;;;4.10;1.70;;;21.30;95.10;;;;;;5002003;28;20030;-74
2022/10/05 12:57:34;;;;;;;1.92;1.13;;;21.30;94.80;;;;;;5003011;28;20060;-73
2022/10/05 13:00:10;;;;;;;3.65;0.70;;;21.20;94.70;;;;;;5002256;28;20032;-71
2022/10/05 13:02:57;;;;;;;2.38;1.00;;;21.30;94.10;;;;;;5002882;28;20080;-71
2022/10/05 13:05:26;;;;;;;3.33;1.50;;;21.30;94.30;;;;;;5003331;28;20059;-71
2022/10/05 13:08:21;;;;;;;2.05;0.70;;;21.30;94.50;;;;;;5003754;28;20065;-72
2022/10/05 13:11:28;;;;;;;1.67;0.90;;;21.40;93.90;;;;;;5005917;28;20041;-73
2022/10/05 13:14:15;;;;;;;3.92;0.90;;;21.40;92.90;;;;;;4992576;28;20549;-72
2022/10/05 13:17:17;;;;;;;2.40;0.75;;;21.50;92.60;;;;;;4999021;28;20081;-72
2022/10/05 13:19:51;;;;;;;1.40;0.70;;;21.60;92.20;;;;;;5008407;28;20379;-72
2022/10/05 13:22:41;;;;;;;2.50;0.93;;;21.60;91.70;;;;;;5013789;28;20403;-71
2022/10/05 13:25:30;;;;;;;2.15;0.90;;;21.60;91.70;;;;;;5001625;28;20022;-71
2022/10/05 13:28:13;;;;;;;2.28;0.70;;;21.70;91.00;;;;;;5005571;28;20116;-71
2022/10/05 13:31:10;;;;;;;1.95;0.80;;;21.60;91.20;;;;;;4999524;28;20117;-71
2022/10/05 13:33:59;;;;;;;2.88;0.80;;;21.70;90.70;;;;;;5006319;28;20030;-71
2022/10/05 13:36:52;;;;;;;1.42;0.73;;;21.70;90.90;;;;;;4999613;28;20028;-75
2022/10/05 13:39:20;;;;;;;2.20;0.70;;;21.70;91.00;;;;;;4999328;28;20038;-70
2022/10/05 13:41:55;;;;;;;1.48;0.80;;;21.70;90.90;;;;;;5000759;28;20019;-74
2022/10/05 13:44:43;;;;;;;2.70;1.02;;;21.90;88.50;;;;;;5001607;28;20030;-75
2022/10/05 13:47:29;;;;;;;3.92;0.90;;;21.90;88.10;;;;;;5007569;28;20042;-75
2022/10/05 13:50:20;;;;;;;4.25;1.15;;;21.90;86.50;;;;;;5009358;28;20034;-75
2022/10/05 13:52:49;;;;;;;1.92;0.90;;;21.90;85.30;;;;;;4992946;28;20495;-75
2022/10/05 13:55:46;;;;;;;1.65;0.80;;;21.90;84.00;;;;;;5003150;28;20041;-75
2022/10/05 13:58:35;;;;;;;0.85;0.50;;;22.00;81.30;;;;;;5003072;28;20018;-75
2022/10/05 14:01:06;;;;;;;1.08;0.52;;;22.10;79.60;;;;;;5004529;28;20029;-74
2022/10/05 14:03:37;;;;;;;1.25;0.63;;;22.10;78.70;;;;;;5005093;28;20015;-76
2022/10/05 14:06:26;;;;;;;2.50;0.80;;;22.10;78.00;;;;;;5006703;28;20017;-75
2022/10/05 14:08:52;;;;;;;3.22;0.95;;;22.10;77.40;;;;;;5004672;28;20030;-72
2022/10/05 14:11:37;;;;;;;1.70;0.90;;;22.10;78.10;;;;;;5008983;28;20037;-72
2022/10/05 14:14:16;;;;;;;2.85;0.60;;;22.10;76.50;;;;;;5004005;28;20342;-72
2022/10/05 14:16:51;;;;;;;0.95;0.52;;;22.20;75.60;;;;;;5005531;28;20022;-73
2022/10/05 14:19:22;;;;;;;2.20;1.13;;;22.20;78.00;;;;;;5003255;28;20026;-73
2022/10/05 14:21:57;;;;;;;1.83;0.82;;;22.20;79.70;;;;;;5006248;28;20041;-73
2022/10/05 14:24:29;;;;;;;4.25;1.20;;;22.10;81.10;;;;;;5022149;28;20030;-73
2022/10/05 14:26:56;;;;;;;1.15;0.75;;;22.00;80.80;;;;;;5010338;28;20030;-72
2022/10/05 14:29:36;;;;;;;1.70;0.90;;;22.00;79.20;;;;;;5007618;28;20041;-72
2022/10/05 14:32:13;;;;;;;1.33;0.60;;;22.00;75.90;;;;;;5002017;28;20026;-73